sensor_id;sensor_type;location;lat;lon;timestamp;temperature;humidity
49238;DHT22;35069;47.906;1.892;2022-09-12T06:02:24;17.10;99.90
49238;DHT22;35069;47.906;1.892;2022-09-12T06:04:49;17.30;99.90
49238;DHT22;35069;47.906;1.892;2022-09-12T06:07:15;17.50;99.90
49238;DHT22;35069;47.906;1.892;2022-09-12T06:09:41;17.60;99.90
49238;DHT22;35069;47.906;1.892;2022-09-12T06:12:06;17.70;99.90
49238;DHT22;35069;47.906;1.892;2022-09-12T06:14:33;17.80;99.90
49238;DHT22;35069;47.906;1.892;2022-09-12T06:16:58;17.80;99.90
49238;DHT22;35069;47.906;1.892;2022-09-12T06:19:24;17.80;99.90
49238;DHT22;35069;47.906;1.892;2022-09-12T06:21:52;17.80;99.90
49238;DHT22;35069;47.906;1.892;2022-09-12T06:24:19;17.90;99.90
49238;DHT22;35069;47.906;1.892;2022-09-12T06:26:50;18.00;99.90
49238;DHT22;35069;47.906;1.892;2022-09-12T06:29:17;18.10;99.90
49238;DHT22;35069;47.906;1.892;2022-09-12T06:31:44;18.40;99.90
49238;DHT22;35069;47.906;1.892;2022-09-12T06:34:12;18.50;99.90
49238;DHT22;35069;47.906;1.892;2022-09-12T06:36:43;18.60;99.90
49238;DHT22;35069;47.906;1.892;2022-09-12T06:39:11;18.80;99.90
49238;DHT22;35069;47.906;1.892;2022-09-12T06:41:37;18.90;99.90
49238;DHT22;35069;47.906;1.892;2022-09-12T06:44:03;19.10;99.90
49238;DHT22;35069;47.906;1.892;2022-09-12T06:46:29;19.20;99.90
49238;DHT22;35069;47.906;1.892;2022-09-12T06:48:59;19.30;99.90
49238;DHT22;35069;47.906;1.892;2022-09-12T06:51:26;19.40;99.90
49238;DHT22;35069;47.906;1.892;2022-09-12T06:53:54;19.60;99.90
49238;DHT22;35069;47.906;1.892;2022-09-12T06:56:22;19.80;99.70
49238;DHT22;35069;47.906;1.892;2022-09-12T06:58:49;20.00;99.40
49238;DHT22;35069;47.906;1.892;2022-09-12T15:02:26;28.40;46.20
49238;DHT22;35069;47.906;1.892;2022-09-12T15:05:16;28.40;46.70
49238;DHT22;35069;47.906;1.892;2022-09-12T15:07:51;28.40;45.60
49238;DHT22;35069;47.906;1.892;2022-09-12T15:13:02;28.40;46.20
49238;DHT22;35069;47.906;1.892;2022-09-12T15:15:29;28.50;46.00
49238;DHT22;35069;47.906;1.892;2022-09-12T15:17:54;28.60;45.80
49238;DHT22;35069;47.906;1.892;2022-09-12T15:20:20;28.70;45.40
49238;DHT22;35069;47.906;1.892;2022-09-12T15:22:46;28.80;45.30
49238;DHT22;35069;47.906;1.892;2022-09-12T15:25:12;28.70;45.20
49238;DHT22;35069;47.906;1.892;2022-09-12T15:27:38;28.70;45.20
49238;DHT22;35069;47.906;1.892;2022-09-12T15:30:06;28.80;45.30
49238;DHT22;35069;47.906;1.892;2022-09-12T15:32:33;28.70;45.00
49238;DHT22;35069;47.906;1.892;2022-09-12T15:34:58;28.80;44.50
49238;DHT22;35069;47.906;1.892;2022-09-12T15:37:24;28.80;44.40
49238;DHT22;35069;47.906;1.892;2022-09-12T15:39:50;28.90;44.40
49238;DHT22;35069;47.906;1.892;2022-09-12T15:42:18;28.90;44.30
49238;DHT22;35069;47.906;1.892;2022-09-12T15:44:47;29.00;44.20
49238;DHT22;35069;47.906;1.892;2022-09-12T15:47:13;29.00;44.10
49238;DHT22;35069;47.906;1.892;2022-09-12T15:49:39;29.00;43.80
49238;DHT22;35069;47.906;1.892;2022-09-12T15:52:06;29.00;43.80
49238;DHT22;35069;47.906;1.892;2022-09-12T15:54:32;29.00;43.80
49238;DHT22;35069;47.906;1.892;2022-09-12T15:56:58;28.90;43.80
49238;DHT22;35069;47.906;1.892;2022-09-12T15:59:23;28.90;43.80
49238;DHT22;35069;47.906;1.892;2022-09-12T16:01:49;29.00;43.80
49238;DHT22;35069;47.906;1.892;2022-09-12T16:04:20;28.90;43.90
49238;DHT22;35069;47.906;1.892;2022-09-12T16:06:46;28.90;43.80
49238;DHT22;35069;47.906;1.892;2022-09-12T16:09:12;28.80;43.80
49238;DHT22;35069;47.906;1.892;2022-09-12T16:11:37;28.80;43.80
49238;DHT22;35069;47.906;1.892;2022-09-12T16:14:04;28.80;43.80
49238;DHT22;35069;47.906;1.892;2022-09-12T16:16:30;28.80;44.30
49238;DHT22;35069;47.906;1.892;2022-09-12T16:18:56;28.80;43.80
49238;DHT22;35069;47.906;1.892;2022-09-12T16:21:22;28.80;43.80
49238;DHT22;35069;47.906;1.892;2022-09-12T16:23:47;28.80;43.80
49238;DHT22;35069;47.906;1.892;2022-09-12T16:26:14;28.80;43.80
49238;DHT22;35069;47.906;1.892;2022-09-12T16:28:40;28.80;43.80
49238;DHT22;35069;47.906;1.892;2022-09-12T16:31:07;28.80;43.80
49238;DHT22;35069;47.906;1.892;2022-09-12T16:33:35;28.90;44.00
49238;DHT22;35069;47.906;1.892;2022-09-12T16:36:09;28.90;43.90
49238;DHT22;35069;47.906;1.892;2022-09-12T16:38:45;28.80;43.80
49238;DHT22;35069;47.906;1.892;2022-09-12T16:41:12;28.80;43.50
49238;DHT22;35069;47.906;1.892;2022-09-12T16:43:38;28.70;44.10
49238;DHT22;35069;47.906;1.892;2022-09-12T16:46:06;28.70;44.20
49238;DHT22;35069;47.906;1.892;2022-09-12T16:48:33;28.60;44.30
49238;DHT22;35069;47.906;1.892;2022-09-12T16:50:59;28.60;44.50
49238;DHT22;35069;47.906;1.892;2022-09-12T16:53:29;28.50;44.40
49238;DHT22;35069;47.906;1.892;2022-09-12T16:55:55;28.40;44.60
49238;DHT22;35069;47.906;1.892;2022-09-12T16:58:21;28.40;44.60
49238;DHT22;35069;47.906;1.892;2022-09-12T17:00:46;28.40;44.70
49238;DHT22;35069;47.906;1.892;2022-09-12T17:03:12;28.30;44.70
49238;DHT22;35069;47.906;1.892;2022-09-12T17:05:38;28.30;44.70
49238;DHT22;35069;47.906;1.892;2022-09-12T17:08:04;28.20;44.80
49238;DHT22;35069;47.906;1.892;2022-09-12T17:10:29;28.20;44.90
49238;DHT22;35069;47.906;1.892;2022-09-12T17:12:55;28.20;45.00
49238;DHT22;35069;47.906;1.892;2022-09-12T17:15:22;28.10;45.00
49238;DHT22;35069;47.906;1.892;2022-09-12T17:17:47;28.10;45.00
49238;DHT22;35069;47.906;1.892;2022-09-12T17:20:13;28.10;45.00
49238;DHT22;35069;47.906;1.892;2022-09-12T17:22:39;28.00;45.10
49238;DHT22;35069;47.906;1.892;2022-09-12T17:25:04;28.00;45.10
49238;DHT22;35069;47.906;1.892;2022-09-12T17:27:30;28.00;45.20
49238;DHT22;35069;47.906;1.892;2022-09-12T17:29:56;28.00;45.30
49238;DHT22;35069;47.906;1.892;2022-09-12T17:32:22;27.90;45.30
49238;DHT22;35069;47.906;1.892;2022-09-12T17:34:47;27.90;45.50
49238;DHT22;35069;47.906;1.892;2022-09-12T17:37:13;27.90;45.50
49238;DHT22;35069;47.906;1.892;2022-09-12T17:39:39;27.90;45.50
49238;DHT22;35069;47.906;1.892;2022-09-12T17:42:05;27.90;45.50
49238;DHT22;35069;47.906;1.892;2022-09-12T17:44:32;27.80;45.60
49238;DHT22;35069;47.906;1.892;2022-09-12T17:47:00;27.70;45.90
49238;DHT22;35069;47.906;1.892;2022-09-12T17:49:26;27.70;46.30
49238;DHT22;35069;47.906;1.892;2022-09-12T17:51:52;27.60;46.80
49238;DHT22;35069;47.906;1.892;2022-09-12T17:54:20;27.60;47.30
49238;DHT22;35069;47.906;1.892;2022-09-12T17:56:47;27.50;47.90
49238;DHT22;35069;47.906;1.892;2022-09-12T17:59:17;27.50;48.50
49238;DHT22;35069;47.906;1.892;2022-09-12T18:01:43;27.40;49.00
49238;DHT22;35069;47.906;1.892;2022-09-12T18:04:27;27.40;49.30
49238;DHT22;35069;47.906;1.892;2022-09-12T18:06:53;27.30;49.90
49238;DHT22;35069;47.906;1.892;2022-09-12T18:09:21;27.30;50.20
49238;DHT22;35069;47.906;1.892;2022-09-12T18:11:48;27.20;51.30
49238;DHT22;35069;47.906;1.892;2022-09-12T18:14:14;27.20;51.10
49238;DHT22;35069;47.906;1.892;2022-09-12T18:16:41;27.10;51.90
49238;DHT22;35069;47.906;1.892;2022-09-12T18:19:07;27.10;51.80
49238;DHT22;35069;47.906;1.892;2022-09-12T18:21:33;27.00;52.00
49238;DHT22;35069;47.906;1.892;2022-09-12T18:23:59;27.00;52.20
49238;DHT22;35069;47.906;1.892;2022-09-12T18:26:26;27.00;52.30
49238;DHT22;35069;47.906;1.892;2022-09-12T18:28:52;26.90;52.40
49238;DHT22;35069;47.906;1.892;2022-09-12T18:31:21;26.80;52.50
49238;DHT22;35069;47.906;1.892;2022-09-12T18:33:48;26.80;52.80
49238;DHT22;35069;47.906;1.892;2022-09-12T18:36:16;26.80;53.00
49238;DHT22;35069;47.906;1.892;2022-09-12T18:38:42;26.70;53.40
49238;DHT22;35069;47.906;1.892;2022-09-12T18:41:13;26.70;53.60
49238;DHT22;35069;47.906;1.892;2022-09-12T18:43:39;26.60;53.90
49238;DHT22;35069;47.906;1.892;2022-09-12T18:46:16;26.60;54.10
49238;DHT22;35069;47.906;1.892;2022-09-12T18:48:43;26.50;55.30
49238;DHT22;35069;47.906;1.892;2022-09-12T18:51:13;26.50;54.70
49238;DHT22;35069;47.906;1.892;2022-09-12T18:53:40;26.40;55.60
49238;DHT22;35069;47.906;1.892;2022-09-12T18:56:11;26.40;55.20
49238;DHT22;35069;47.906;1.892;2022-09-12T18:58:39;26.40;55.60
49238;DHT22;35069;47.906;1.892;2022-09-12T19:01:13;26.30;55.70
49238;DHT22;35069;47.906;1.892;2022-09-12T19:03:39;26.30;56.20
49238;DHT22;35069;47.906;1.892;2022-09-12T19:06:09;26.20;56.10
49238;DHT22;35069;47.906;1.892;2022-09-12T19:08:37;26.20;56.40
49238;DHT22;35069;47.906;1.892;2022-09-12T19:11:03;26.10;56.60
49238;DHT22;35069;47.906;1.892;2022-09-12T19:13:30;26.10;56.90
49238;DHT22;35069;47.906;1.892;2022-09-12T19:15:56;26.10;57.10
49238;DHT22;35069;47.906;1.892;2022-09-12T19:18:21;26.00;57.40
49238;DHT22;35069;47.906;1.892;2022-09-12T19:20:51;25.90;57.50
49238;DHT22;35069;47.906;1.892;2022-09-12T19:23:17;25.90;58.00
49238;DHT22;35069;47.906;1.892;2022-09-12T19:25:43;25.90;58.00
49238;DHT22;35069;47.906;1.892;2022-09-12T19:28:10;25.80;58.20
49238;DHT22;35069;47.906;1.892;2022-09-12T19:30:36;25.80;58.50
49238;DHT22;35069;47.906;1.892;2022-09-12T19:33:01;25.80;58.80
49238;DHT22;35069;47.906;1.892;2022-09-12T19:35:27;25.70;58.80
49238;DHT22;35069;47.906;1.892;2022-09-12T19:37:53;25.70;59.10
49238;DHT22;35069;47.906;1.892;2022-09-12T19:40:18;25.60;59.30
49238;DHT22;35069;47.906;1.892;2022-09-12T19:42:44;25.60;59.50
49238;DHT22;35069;47.906;1.892;2022-09-12T19:45:10;25.60;59.70
49238;DHT22;35069;47.906;1.892;2022-09-12T19:47:35;25.50;59.70
49238;DHT22;35069;47.906;1.892;2022-09-12T19:50:01;25.50;60.00
49238;DHT22;35069;47.906;1.892;2022-09-12T19:52:27;25.50;60.00
49238;DHT22;35069;47.906;1.892;2022-09-12T19:54:52;25.50;60.10
49238;DHT22;35069;47.906;1.892;2022-09-12T19:57:18;25.50;60.20
49238;DHT22;35069;47.906;1.892;2022-09-12T19:59:43;25.50;60.30
49238;DHT22;35069;47.906;1.892;2022-09-12T20:02:10;25.40;60.40
49238;DHT22;35069;47.906;1.892;2022-09-12T20:04:35;25.40;60.60
49238;DHT22;35069;47.906;1.892;2022-09-12T20:07:03;25.30;60.60
49238;DHT22;35069;47.906;1.892;2022-09-12T20:09:29;25.30;60.70
49238;DHT22;35069;47.906;1.892;2022-09-12T20:11:54;25.30;60.80
49238;DHT22;35069;47.906;1.892;2022-09-12T20:14:20;25.30;61.00
49238;DHT22;35069;47.906;1.892;2022-09-12T20:16:46;25.30;61.10
49238;DHT22;35069;47.906;1.892;2022-09-12T20:19:12;25.30;61.10
49238;DHT22;35069;47.906;1.892;2022-09-12T20:21:38;25.30;61.20
49238;DHT22;35069;47.906;1.892;2022-09-12T20:24:06;25.20;61.30
49238;DHT22;35069;47.906;1.892;2022-09-12T20:26:34;25.20;61.30
49238;DHT22;35069;47.906;1.892;2022-09-12T20:28:59;25.20;61.30
49238;DHT22;35069;47.906;1.892;2022-09-12T20:31:25;25.20;61.50
49238;DHT22;35069;47.906;1.892;2022-09-12T20:33:51;25.10;61.60
49238;DHT22;35069;47.906;1.892;2022-09-12T20:36:18;25.10;61.70
49238;DHT22;35069;47.906;1.892;2022-09-12T20:38:50;25.10;61.70
49238;DHT22;35069;47.906;1.892;2022-09-12T20:41:16;25.10;61.80
49238;DHT22;35069;47.906;1.892;2022-09-12T20:43:42;25.10;61.90
49238;DHT22;35069;47.906;1.892;2022-09-12T20:46:08;25.10;62.10
49238;DHT22;35069;47.906;1.892;2022-09-12T20:48:35;25.10;62.20
49238;DHT22;35069;47.906;1.892;2022-09-12T20:51:01;25.00;62.30
49238;DHT22;35069;47.906;1.892;2022-09-12T20:53:27;24.90;62.50
49238;DHT22;35069;47.906;1.892;2022-09-12T20:55:53;24.90;62.60
49238;DHT22;35069;47.906;1.892;2022-09-12T20:58:19;24.90;62.60
49238;DHT22;35069;47.906;1.892;2022-09-12T21:00:46;24.90;62.70
49238;DHT22;35069;47.906;1.892;2022-09-12T21:03:12;24.90;62.80
49238;DHT22;35069;47.906;1.892;2022-09-12T21:05:38;24.90;62.90
49238;DHT22;35069;47.906;1.892;2022-09-12T21:08:05;24.90;62.90
49238;DHT22;35069;47.906;1.892;2022-09-12T21:10:31;24.90;63.10
49238;DHT22;35069;47.906;1.892;2022-09-12T21:12:57;24.80;63.10
49238;DHT22;35069;47.906;1.892;2022-09-12T21:15:22;24.90;63.20
49238;DHT22;35069;47.906;1.892;2022-09-12T21:17:48;24.80;63.30
49238;DHT22;35069;47.906;1.892;2022-09-12T21:20:14;24.80;63.40
49238;DHT22;35069;47.906;1.892;2022-09-12T21:22:39;24.80;63.60
49238;DHT22;35069;47.906;1.892;2022-09-12T21:25:05;24.70;63.70
49238;DHT22;35069;47.906;1.892;2022-09-12T21:27:31;24.70;63.90
49238;DHT22;35069;47.906;1.892;2022-09-12T21:29:57;24.60;63.90
49238;DHT22;35069;47.906;1.892;2022-09-12T21:32:23;24.60;64.00
49238;DHT22;35069;47.906;1.892;2022-09-12T21:34:49;24.60;64.10
49238;DHT22;35069;47.906;1.892;2022-09-12T21:37:14;24.60;64.20
49238;DHT22;35069;47.906;1.892;2022-09-12T21:39:40;24.60;64.40
49238;DHT22;35069;47.906;1.892;2022-09-12T21:42:06;24.60;64.40
49238;DHT22;35069;47.906;1.892;2022-09-12T21:44:31;24.60;64.40
49238;DHT22;35069;47.906;1.892;2022-09-12T21:46:57;24.60;64.40
49238;DHT22;35069;47.906;1.892;2022-09-12T21:49:23;24.60;64.40
49238;DHT22;35069;47.906;1.892;2022-09-12T21:51:49;24.60;64.50
49238;DHT22;35069;47.906;1.892;2022-09-12T21:54:15;24.60;64.60
49238;DHT22;35069;47.906;1.892;2022-09-12T21:56:40;24.60;64.60
49238;DHT22;35069;47.906;1.892;2022-09-12T21:59:06;24.60;64.70
